Terminal Aerodrome Forecast
Issued by NWS Atlanta, GA

Home | Current Version | Previous Version | Text Only | Print | Product List | Glossary On
Versions: 1 2 3 4 5 6 7 8 9 10 11 12 13 14 15 16
197
FTUS42 KFFC 271434 AAB
TAFMCN
TAF AMD
KMCN 271434Z 2715/2812 20010G18KT P6SM BKN015
     FM271630 20012KT P6SM VCSH BKN020
     FM271800 18012KT 6SM -SHRA BR BKN025
      TEMPO 2719/2723 VRB15G30KT 4SM -TSRA BR BKN012CB
     FM272300 21013G22KT 6SM -RA BR BKN025
     FM280000 25004KT P6SM SCT040 BKN100
     FM280600 20004KT 4SM BR BKN007=

USA.gov is the U.S. government's official web portal to all federal, state and local government web resources and services.